createdAt,value
2023-05-20T00:00:37.866Z,10.89
2023-05-20T00:05:40.724Z,10.97
2023-05-20T00:10:43.223Z,10.37
2023-05-20T00:15:46.621Z,11.10
2023-05-20T00:20:49.023Z,10.63
2023-05-20T00:25:51.318Z,10.93
2023-05-20T00:30:53.785Z,10.73
2023-05-20T00:35:56.370Z,11.00
2023-05-20T00:40:58.822Z,10.29
2023-05-20T00:46:01.796Z,10.95
2023-05-20T00:51:05.386Z,10.92
2023-05-20T00:56:08.712Z,10.92
2023-05-20T01:01:11.861Z,10.63
2023-05-20T01:06:14.408Z,10.79
2023-05-20T01:11:31.796Z,10.80
2023-05-20T01:16:36.216Z,10.71
2023-05-20T01:21:39.039Z,10.37
2023-05-20T01:26:41.643Z,10.34
2023-05-20T01:31:44.262Z,10.44
2023-05-20T01:36:47.812Z,10.54
2023-05-20T01:41:50.398Z,10.87
2023-05-20T01:46:53.093Z,10.82
2023-05-20T01:51:56.021Z,10.79
2023-05-20T01:56:58.636Z,10.24
2023-05-20T02:02:01.164Z,10.78
2023-05-20T02:07:04.029Z,10.77
2023-05-20T02:12:07.207Z,10.62
2023-05-20T02:17:10.736Z,10.75
2023-05-20T02:22:14.294Z,10.74
2023-05-20T02:27:19.304Z,10.61
2023-05-20T02:32:21.853Z,10.59
2023-05-20T02:37:24.409Z,10.47
2023-05-20T02:42:26.862Z,10.54
2023-05-20T02:47:29.672Z,10.62
2023-05-20T02:52:32.171Z,10.57
2023-05-20T02:57:38.471Z,10.70
2023-05-20T03:02:42.727Z,10.33
2023-05-20T03:07:46.825Z,10.49
2023-05-20T03:12:49.448Z,10.42
2023-05-20T03:17:51.868Z,10.37
2023-05-20T03:22:54.283Z,10.61
2023-05-20T03:27:58.668Z,10.41
2023-05-20T03:33:03.171Z,10.60
2023-05-20T03:38:05.939Z,10.76
2023-05-20T03:43:10.920Z,10.79
2023-05-20T03:48:13.535Z,10.78
2023-05-20T03:53:16.202Z,10.82
2023-05-20T03:58:21.011Z,10.56
2023-05-20T04:03:23.921Z,10.85
2023-05-20T04:08:26.757Z,10.58
2023-05-20T04:13:29.544Z,10.44
2023-05-20T04:18:32.351Z,10.60
2023-05-20T04:23:34.865Z,10.46
2023-05-20T04:28:38.141Z,9.48
2023-05-20T04:33:41.518Z,10.95
2023-05-20T04:38:44.994Z,10.70
2023-05-20T04:43:47.458Z,10.81
2023-05-20T04:48:49.962Z,10.95
2023-05-20T04:53:52.413Z,11.17
2023-05-20T04:58:56.467Z,11.24
2023-05-20T05:03:59.010Z,11.32
2023-05-20T05:09:01.557Z,11.16
2023-05-20T05:14:04.301Z,11.04
2023-05-20T05:19:07.673Z,11.07
2023-05-20T05:24:13.492Z,11.20
2023-05-20T05:29:16.685Z,11.55
2023-05-20T05:34:19.160Z,11.63
2023-05-20T05:39:21.984Z,11.03
2023-05-20T05:44:24.424Z,11.75
2023-05-20T05:49:27.298Z,11.59
2023-05-20T05:54:29.891Z,11.91
2023-05-20T05:59:32.467Z,11.22
2023-05-20T06:04:35.412Z,12.01
2023-05-20T06:09:38.973Z,11.98
2023-05-20T06:14:41.773Z,12.11
2023-05-20T06:19:44.330Z,12.14
2023-05-20T06:24:46.901Z,12.17
2023-05-20T06:29:49.471Z,12.35
2023-05-20T06:34:52.060Z,12.81
2023-05-20T06:39:54.542Z,13.40
2023-05-20T06:44:57.959Z,13.15
2023-05-20T06:50:21.019Z,13.64
2023-05-20T06:55:23.667Z,13.10
2023-05-20T07:00:26.505Z,13.66
2023-05-20T07:05:29.905Z,14.20
2023-05-20T07:10:32.470Z,14.16
2023-05-20T07:15:35.409Z,14.31
2023-05-20T07:20:38.847Z,14.65
2023-05-20T07:25:47.713Z,14.77
2023-05-20T07:30:50.957Z,14.84
2023-05-20T07:36:00.048Z,14.65
2023-05-20T07:41:02.649Z,14.61
2023-05-20T07:46:05.574Z,15.17
2023-05-20T07:51:07.919Z,15.21
2023-05-20T07:56:10.611Z,14.74
2023-05-20T08:01:13.965Z,15.26
2023-05-20T08:06:17.943Z,15.51
2023-05-20T08:11:22.052Z,15.05
2023-05-20T08:16:24.731Z,15.44
2023-05-20T08:21:27.284Z,15.69
2023-05-20T08:26:29.915Z,15.72
2023-05-20T08:31:33.565Z,15.38
2023-05-20T08:36:36.370Z,15.85
2023-05-20T08:41:39.763Z,15.96
2023-05-20T08:46:42.845Z,15.79
2023-05-20T08:51:47.694Z,15.16
2023-05-20T08:56:50.637Z,15.52
2023-05-20T09:01:53.249Z,15.67
2023-05-20T09:06:56.123Z,15.37
2023-05-20T09:11:58.494Z,15.32
2023-05-20T09:17:01.041Z,15.57
2023-05-20T09:22:05.584Z,15.63
2023-05-20T09:27:08.139Z,15.60
2023-05-20T09:32:14.318Z,15.61
2023-05-20T09:37:22.606Z,15.52
2023-05-20T09:42:29.345Z,15.78
2023-05-20T09:47:32.308Z,15.80
2023-05-20T09:52:39.249Z,15.92
2023-05-20T09:57:42.409Z,15.55
2023-05-20T10:02:52.564Z,15.96
2023-05-20T10:08:17.225Z,15.89
2023-05-20T10:13:34.734Z,15.72
2023-05-20T10:18:58.716Z,15.75
2023-05-20T10:24:08.792Z,15.65
2023-05-20T10:29:18.599Z,15.51
2023-05-20T10:34:23.025Z,15.62
2023-05-20T10:39:30.268Z,15.66
2023-05-20T10:44:47.482Z,15.74
2023-05-20T10:49:49.986Z,15.88
2023-05-20T10:55:01.292Z,16.03
2023-05-20T11:00:06.485Z,16.10
2023-05-20T11:05:12.715Z,16.09
2023-05-20T11:10:15.273Z,15.96
2023-05-20T11:15:18.372Z,16.03
2023-05-20T11:20:21.192Z,15.76
2023-05-20T11:25:24.211Z,15.76
2023-05-20T11:30:27.071Z,15.66
2023-05-20T11:35:30.978Z,15.33
2023-05-20T11:40:42.755Z,14.79
2023-05-20T11:45:59.715Z,15.55
2023-05-20T11:51:02.951Z,15.55
2023-05-20T11:56:05.597Z,15.35
2023-05-20T12:01:20.947Z,15.51
2023-05-20T12:06:24.658Z,15.36
2023-05-20T12:11:27.201Z,15.26
2023-05-20T12:16:30.716Z,15.35
2023-05-20T12:21:33.357Z,15.11
2023-05-20T12:26:35.858Z,14.96
2023-05-20T12:31:40.124Z,14.73
2023-05-20T12:36:42.875Z,14.88
2023-05-20T12:41:45.375Z,14.82
2023-05-20T12:46:48.130Z,14.31
2023-05-20T12:51:50.872Z,14.65
2023-05-20T12:56:53.296Z,13.94
2023-05-20T13:01:55.886Z,14.45
2023-05-20T13:06:58.609Z,14.45
2023-05-20T13:12:02.262Z,14.13
2023-05-20T13:17:04.905Z,14.56
2023-05-20T13:22:07.848Z,14.55
2023-05-20T13:27:11.126Z,14.33
2023-05-20T13:32:14.033Z,14.25
2023-05-20T13:37:16.439Z,14.51
2023-05-20T13:42:18.905Z,14.45
2023-05-20T13:47:21.817Z,14.30
2023-05-20T13:52:24.433Z,14.51
2023-05-20T13:57:28.332Z,14.59
2023-05-20T14:02:32.212Z,14.71
2023-05-20T14:07:34.990Z,14.61
2023-05-20T14:12:37.445Z,14.41
2023-05-20T14:17:41.551Z,14.51
2023-05-20T14:22:45.054Z,14.67
2023-05-20T14:27:50.849Z,14.87
2023-05-20T14:32:53.451Z,14.76
2023-05-20T14:37:55.932Z,14.98
2023-05-20T14:42:58.488Z,14.85
2023-05-20T14:48:00.916Z,14.16
2023-05-20T14:53:03.510Z,14.77
2023-05-20T14:58:05.914Z,14.99
2023-05-20T15:03:08.623Z,14.97
2023-05-20T15:08:11.443Z,14.98
2023-05-20T15:13:14.309Z,14.84
2023-05-20T15:18:17.114Z,14.97
2023-05-20T15:23:19.786Z,14.70
2023-05-20T15:28:22.376Z,14.86
2023-05-20T15:33:25.164Z,15.04
2023-05-20T15:38:27.876Z,14.67
2023-05-20T15:43:30.502Z,14.90
2023-05-20T15:48:40.154Z,14.77
2023-05-20T15:59:23.771Z,14.97
2023-05-20T16:04:30.346Z,14.53
2023-05-20T16:09:39.346Z,14.90
2023-05-20T16:14:45.571Z,14.73
2023-05-20T16:19:50.445Z,14.64
2023-05-20T16:24:53.105Z,14.52
2023-05-20T16:29:55.968Z,14.73
2023-05-20T16:34:58.526Z,14.66
2023-05-20T16:40:01.181Z,14.62
2023-05-20T16:45:05.799Z,14.02
2023-05-20T16:50:09.303Z,14.30
2023-05-20T16:55:12.965Z,14.44
2023-05-20T17:00:16.686Z,14.02
2023-05-20T17:05:22.485Z,14.29
2023-05-20T17:10:25.091Z,14.20
2023-05-20T17:15:27.812Z,13.97
2023-05-20T17:20:30.389Z,14.10
2023-05-20T17:25:33.309Z,13.32
2023-05-20T17:30:38.085Z,13.77
2023-05-20T17:35:41.150Z,13.84
2023-05-20T17:40:44.001Z,13.61
2023-05-20T17:45:46.989Z,13.52
2023-05-20T17:50:49.570Z,13.20
2023-05-20T17:55:52.171Z,12.69
2023-05-20T18:00:54.774Z,13.27
2023-05-20T18:05:57.458Z,12.99
2023-05-20T18:11:00.762Z,13.18
2023-05-20T18:16:03.367Z,13.09
2023-05-20T18:21:08.072Z,13.02
2023-05-20T18:26:10.891Z,12.65
2023-05-20T18:31:13.440Z,12.86
2023-05-20T18:36:16.111Z,12.78
2023-05-20T18:41:18.926Z,12.56
2023-05-20T18:46:26.321Z,12.42
2023-05-20T18:51:33.464Z,12.47
2023-05-20T18:56:39.613Z,12.21
2023-05-20T19:01:43.591Z,12.56
2023-05-20T19:06:46.184Z,12.51
2023-05-20T19:11:49.038Z,12.23
2023-05-20T19:16:52.767Z,12.26
2023-05-20T19:22:00.520Z,12.20
2023-05-20T19:27:03.536Z,12.12
2023-05-20T19:32:06.730Z,12.17
2023-05-20T19:37:12.600Z,12.31
2023-05-20T19:42:18.492Z,11.96
2023-05-20T19:47:21.708Z,11.96
2023-05-20T19:52:24.301Z,11.86
2023-05-20T19:57:27.743Z,12.07
2023-05-20T20:02:30.703Z,12.02
2023-05-20T20:07:33.714Z,11.71
2023-05-20T20:12:36.197Z,11.88
2023-05-20T20:17:45.798Z,11.99
2023-05-20T20:22:48.521Z,11.44
2023-05-20T20:27:51.417Z,11.24
2023-05-20T20:32:54.362Z,11.64
2023-05-20T20:37:57.011Z,11.89
2023-05-20T20:42:59.432Z,11.84
2023-05-20T20:48:02.142Z,11.71
2023-05-20T20:53:04.857Z,11.66
2023-05-20T20:58:10.882Z,11.67
2023-05-20T21:03:13.740Z,11.31
2023-05-20T21:08:17.633Z,11.45
2023-05-20T21:13:20.150Z,11.69
2023-05-20T21:18:24.187Z,11.24
2023-05-20T21:23:26.760Z,11.57
2023-05-20T21:28:29.150Z,11.48
2023-05-20T21:33:31.544Z,11.34
2023-05-20T21:38:33.983Z,11.57
2023-05-20T21:43:37.716Z,11.57
2023-05-20T21:48:40.213Z,11.19
2023-05-20T21:53:42.733Z,11.00
2023-05-20T21:58:45.864Z,10.95
2023-05-20T22:03:51.282Z,11.41
2023-05-20T22:08:55.177Z,10.83
2023-05-20T22:14:00.138Z,11.48
2023-05-20T22:19:02.902Z,11.45
2023-05-20T22:24:05.486Z,11.42
2023-05-20T22:29:08.471Z,11.40
2023-05-20T22:34:10.902Z,11.12
2023-05-20T22:39:13.677Z,10.98
2023-05-20T22:44:19.129Z,11.04
2023-05-20T22:49:24.175Z,11.27
2023-05-20T22:54:26.816Z,11.39
2023-05-20T22:59:31.483Z,10.83
2023-05-20T23:04:34.346Z,11.23
2023-05-20T23:09:36.758Z,11.34
2023-05-20T23:14:39.188Z,11.17
2023-05-20T23:19:41.729Z,11.06
2023-05-20T23:24:44.127Z,11.02
2023-05-20T23:29:46.517Z,10.81
2023-05-20T23:34:53.725Z,11.28
2023-05-20T23:39:56.339Z,11.29
2023-05-20T23:44:58.773Z,11.17
2023-05-20T23:50:01.716Z,11.21
2023-05-20T23:55:09.642Z,11.08
